sensor_id;sensor_type;location;lat;lon;timestamp;temperature;humidity
34291;DHT22;20553;47.544;7.586;2022-09-01T00:00:32;15.80;99.90
34291;DHT22;20553;47.544;7.586;2022-09-01T00:05:38;15.70;99.90
34291;DHT22;20553;47.544;7.586;2022-09-01T00:10:43;15.70;99.90
34291;DHT22;20553;47.544;7.586;2022-09-01T00:15:48;15.50;99.90
34291;DHT22;20553;47.544;7.586;2022-09-01T00:20:54;15.50;99.90
34291;DHT22;20553;47.544;7.586;2022-09-01T00:26:01;15.40;99.90
34291;DHT22;20553;47.544;7.586;2022-09-01T00:31:06;15.30;99.90
34291;DHT22;20553;47.544;7.586;2022-09-01T00:36:13;15.30;99.90
34291;DHT22;20553;47.544;7.586;2022-09-01T00:41:20;15.20;99.90
34291;DHT22;20553;47.544;7.586;2022-09-01T00:46:29;15.20;99.90
34291;DHT22;20553;47.544;7.586;2022-09-01T00:51:43;15.00;99.90
34291;DHT22;20553;47.544;7.586;2022-09-01T00:56:50;15.00;99.90
34291;DHT22;20553;47.544;7.586;2022-09-01T01:01:59;15.00;99.90
34291;DHT22;20553;47.544;7.586;2022-09-01T01:07:06;15.00;99.90
34291;DHT22;20553;47.544;7.586;2022-09-01T01:12:14;15.10;99.90
34291;DHT22;20553;47.544;7.586;2022-09-01T01:17:21;14.90;99.90
34291;DHT22;20553;47.544;7.586;2022-09-01T01:22:36;14.90;99.90
34291;DHT22;20553;47.544;7.586;2022-09-01T01:28:06;14.90;99.90
34291;DHT22;20553;47.544;7.586;2022-09-01T01:33:15;15.00;99.90
34291;DHT22;20553;47.544;7.586;2022-09-01T01:38:21;15.10;99.90
34291;DHT22;20553;47.544;7.586;2022-09-01T01:43:28;15.20;99.90
34291;DHT22;20553;47.544;7.586;2022-09-01T01:48:35;15.20;99.90
34291;DHT22;20553;47.544;7.586;2022-09-01T01:53:43;15.20;99.90
34291;DHT22;20553;47.544;7.586;2022-09-01T01:58:50;15.20;99.90
34291;DHT22;20553;47.544;7.586;2022-09-01T02:04:00;15.10;99.90
34291;DHT22;20553;47.544;7.586;2022-09-01T02:09:06;15.00;99.90
34291;DHT22;20553;47.544;7.586;2022-09-01T02:14:12;15.00;99.90
34291;DHT22;20553;47.544;7.586;2022-09-01T02:19:19;15.00;99.90
34291;DHT22;20553;47.544;7.586;2022-09-01T02:24:24;15.00;99.90
34291;DHT22;20553;47.544;7.586;2022-09-01T02:29:34;15.10;99.90
34291;DHT22;20553;47.544;7.586;2022-09-01T02:34:45;15.00;99.90
34291;DHT22;20553;47.544;7.586;2022-09-01T02:39:55;15.00;99.90
34291;DHT22;20553;47.544;7.586;2022-09-01T02:45:05;15.00;99.90
34291;DHT22;20553;47.544;7.586;2022-09-01T02:50:14;14.90;99.90
34291;DHT22;20553;47.544;7.586;2022-09-01T02:55:20;14.70;99.90
34291;DHT22;20553;47.544;7.586;2022-09-01T03:00:27;14.50;99.90
34291;DHT22;20553;47.544;7.586;2022-09-01T03:05:34;14.40;99.90
34291;DHT22;20553;47.544;7.586;2022-09-01T03:10:42;14.20;99.90
34291;DHT22;20553;47.544;7.586;2022-09-01T03:15:52;14.10;99.90
34291;DHT22;20553;47.544;7.586;2022-09-01T03:20:58;14.00;99.90
34291;DHT22;20553;47.544;7.586;2022-09-01T03:26:04;13.90;99.90
34291;DHT22;20553;47.544;7.586;2022-09-01T03:31:10;13.70;99.90
34291;DHT22;20553;47.544;7.586;2022-09-01T03:36:16;13.70;99.90
34291;DHT22;20553;47.544;7.586;2022-09-01T03:41:26;13.70;99.90
34291;DHT22;20553;47.544;7.586;2022-09-01T03:46:33;13.70;99.90
34291;DHT22;20553;47.544;7.586;2022-09-01T03:51:41;13.80;99.90
34291;DHT22;20553;47.544;7.586;2022-09-01T03:56:46;13.70;99.90
34291;DHT22;20553;47.544;7.586;2022-09-01T04:01:54;13.70;99.90
34291;DHT22;20553;47.544;7.586;2022-09-01T04:07:00;13.70;99.90
34291;DHT22;20553;47.544;7.586;2022-09-01T04:12:06;13.60;99.90
34291;DHT22;20553;47.544;7.586;2022-09-01T04:17:15;13.60;99.90
34291;DHT22;20553;47.544;7.586;2022-09-01T04:22:37;13.50;99.90
34291;DHT22;20553;47.544;7.586;2022-09-01T04:27:44;13.40;99.90
34291;DHT22;20553;47.544;7.586;2022-09-01T04:32:52;13.40;99.90
34291;DHT22;20553;47.544;7.586;2022-09-01T04:37:59;13.40;99.90
34291;DHT22;20553;47.544;7.586;2022-09-01T04:43:04;13.40;99.90
34291;DHT22;20553;47.544;7.586;2022-09-01T04:48:10;13.30;99.90
34291;DHT22;20553;47.544;7.586;2022-09-01T04:53:15;13.30;99.90
34291;DHT22;20553;47.544;7.586;2022-09-01T04:58:22;13.20;99.90
34291;DHT22;20553;47.544;7.586;2022-09-01T05:03:29;13.20;99.90
34291;DHT22;20553;47.544;7.586;2022-09-01T05:08:40;13.20;99.90
34291;DHT22;20553;47.544;7.586;2022-09-01T05:13:55;13.20;99.90
34291;DHT22;20553;47.544;7.586;2022-09-01T05:19:02;13.40;99.90
34291;DHT22;20553;47.544;7.586;2022-09-01T05:24:11;13.50;99.90
34291;DHT22;20553;47.544;7.586;2022-09-01T05:29:18;13.50;99.90
34291;DHT22;20553;47.544;7.586;2022-09-01T05:34:25;13.60;99.90
34291;DHT22;20553;47.544;7.586;2022-09-01T05:39:32;13.80;99.90
34291;DHT22;20553;47.544;7.586;2022-09-01T05:44:38;13.90;99.90
34291;DHT22;20553;47.544;7.586;2022-09-01T05:49:48;14.00;99.90
34291;DHT22;20553;47.544;7.586;2022-09-01T05:54:55;14.20;99.90
34291;DHT22;20553;47.544;7.586;2022-09-01T06:00:05;14.40;99.90
34291;DHT22;20553;47.544;7.586;2022-09-01T06:05:18;14.60;99.90
34291;DHT22;20553;47.544;7.586;2022-09-01T06:10:25;14.80;99.90
34291;DHT22;20553;47.544;7.586;2022-09-01T06:15:32;15.00;99.90
34291;DHT22;20553;47.544;7.586;2022-09-01T06:20:46;15.20;99.90
34291;DHT22;20553;47.544;7.586;2022-09-01T06:25:52;15.40;99.90
34291;DHT22;20553;47.544;7.586;2022-09-01T06:30:57;15.70;99.90
34291;DHT22;20553;47.544;7.586;2022-09-01T06:36:04;15.90;99.90
34291;DHT22;20553;47.544;7.586;2022-09-01T06:41:11;16.30;99.90
34291;DHT22;20553;47.544;7.586;2022-09-01T06:46:16;16.70;99.90
34291;DHT22;20553;47.544;7.586;2022-09-01T06:51:25;17.00;99.90
34291;DHT22;20553;47.544;7.586;2022-09-01T06:56:32;17.30;99.90
34291;DHT22;20553;47.544;7.586;2022-09-01T07:01:49;17.50;99.90
34291;DHT22;20553;47.544;7.586;2022-09-01T07:07:30;17.70;99.90
34291;DHT22;20553;47.544;7.586;2022-09-01T07:13:31;18.00;99.90
34291;DHT22;20553;47.544;7.586;2022-09-01T07:18:41;18.30;99.90
34291;DHT22;20553;47.544;7.586;2022-09-01T07:24:01;18.50;99.90
34291;DHT22;20553;47.544;7.586;2022-09-01T07:29:14;19.10;99.90
34291;DHT22;20553;47.544;7.586;2022-09-01T07:34:20;19.80;97.50
34291;DHT22;20553;47.544;7.586;2022-09-01T07:39:46;19.70;95.40
34291;DHT22;20553;47.544;7.586;2022-09-01T07:45:18;20.40;93.20
34291;DHT22;20553;47.544;7.586;2022-09-01T07:50:34;20.90;90.50
34291;DHT22;20553;47.544;7.586;2022-09-01T07:56:07;21.00;87.30
34291;DHT22;20553;47.544;7.586;2022-09-01T08:01:21;20.50;89.40
34291;DHT22;20553;47.544;7.586;2022-09-01T08:06:28;21.00;88.10
34291;DHT22;20553;47.544;7.586;2022-09-01T08:11:44;21.00;86.90
34291;DHT22;20553;47.544;7.586;2022-09-01T08:17:08;21.60;82.60
34291;DHT22;20553;47.544;7.586;2022-09-01T08:22:37;21.80;81.60
34291;DHT22;20553;47.544;7.586;2022-09-01T08:27:52;22.90;77.20
34291;DHT22;20553;47.544;7.586;2022-09-01T08:33:04;22.90;73.30
34291;DHT22;20553;47.544;7.586;2022-09-01T08:38:15;22.50;74.50
34291;DHT22;20553;47.544;7.586;2022-09-01T08:43:30;22.30;74.10
34291;DHT22;20553;47.544;7.586;2022-09-01T08:48:52;23.00;72.80
34291;DHT22;20553;47.544;7.586;2022-09-01T08:55:23;24.20;67.80
34291;DHT22;20553;47.544;7.586;2022-09-01T09:01:14;24.20;65.80
34291;DHT22;20553;47.544;7.586;2022-09-01T09:07:05;23.80;68.00
34291;DHT22;20553;47.544;7.586;2022-09-01T09:12:43;25.70;61.70
34291;DHT22;20553;47.544;7.586;2022-09-01T09:18:22;26.50;59.10
34291;DHT22;20553;47.544;7.586;2022-09-01T09:23:46;26.60;58.40
34291;DHT22;20553;47.544;7.586;2022-09-01T09:29:05;25.30;59.40
34291;DHT22;20553;47.544;7.586;2022-09-01T09:34:27;25.90;58.90
34291;DHT22;20553;47.544;7.586;2022-09-01T09:39:39;26.10;58.00
34291;DHT22;20553;47.544;7.586;2022-09-01T09:44:52;26.10;58.10
34291;DHT22;20553;47.544;7.586;2022-09-01T09:50:18;26.90;57.60
34291;DHT22;20553;47.544;7.586;2022-09-01T09:56:17;29.20;53.20
34291;DHT22;20553;47.544;7.586;2022-09-01T10:01:48;28.30;52.90
34291;DHT22;20553;47.544;7.586;2022-09-01T10:06:56;30.20;50.50
34291;DHT22;20553;47.544;7.586;2022-09-01T10:12:10;28.60;51.40
34291;DHT22;20553;47.544;7.586;2022-09-01T10:17:24;27.80;53.20
34291;DHT22;20553;47.544;7.586;2022-09-01T10:22:39;29.10;50.40
34291;DHT22;20553;47.544;7.586;2022-09-01T10:27:48;31.60;47.80
34291;DHT22;20553;47.544;7.586;2022-09-01T10:33:00;29.70;49.70
34291;DHT22;20553;47.544;7.586;2022-09-01T10:38:24;31.40;47.00
34291;DHT22;20553;47.544;7.586;2022-09-01T10:43:39;33.30;44.10
34291;DHT22;20553;47.544;7.586;2022-09-01T10:48:46;33.30;43.80
34291;DHT22;20553;47.544;7.586;2022-09-01T10:54:00;33.70;43.00
34291;DHT22;20553;47.544;7.586;2022-09-01T10:59:09;30.50;46.60
34291;DHT22;20553;47.544;7.586;2022-09-01T11:05:09;30.30;47.30
34291;DHT22;20553;47.544;7.586;2022-09-01T11:10:38;32.00;45.90
34291;DHT22;20553;47.544;7.586;2022-09-01T11:15:54;32.30;44.30
34291;DHT22;20553;47.544;7.586;2022-09-01T11:21:14;33.40;43.80
34291;DHT22;20553;47.544;7.586;2022-09-01T11:26:45;33.20;43.50
34291;DHT22;20553;47.544;7.586;2022-09-01T11:31:51;34.00;42.70
34291;DHT22;20553;47.544;7.586;2022-09-01T11:37:02;35.80;41.40
34291;DHT22;20553;47.544;7.586;2022-09-01T11:42:25;35.60;39.80
34291;DHT22;20553;47.544;7.586;2022-09-01T11:47:37;36.50;39.60
34291;DHT22;20553;47.544;7.586;2022-09-01T11:52:53;37.40;38.70
34291;DHT22;20553;47.544;7.586;2022-09-01T11:58:10;35.40;39.60
34291;DHT22;20553;47.544;7.586;2022-09-01T12:03:22;32.90;42.10
34291;DHT22;20553;47.544;7.586;2022-09-01T12:08:34;34.40;41.80
34291;DHT22;20553;47.544;7.586;2022-09-01T12:13:54;36.10;39.80
34291;DHT22;20553;47.544;7.586;2022-09-01T12:19:00;38.80;37.30
34291;DHT22;20553;47.544;7.586;2022-09-01T12:24:14;38.40;36.20
34291;DHT22;20553;47.544;7.586;2022-09-01T12:29:22;37.30;37.50
34291;DHT22;20553;47.544;7.586;2022-09-01T12:34:39;36.90;37.60
34291;DHT22;20553;47.544;7.586;2022-09-01T12:39:46;35.60;39.10
34291;DHT22;20553;47.544;7.586;2022-09-01T12:44:56;35.60;38.10
34291;DHT22;20553;47.544;7.586;2022-09-01T12:50:03;37.50;37.30
34291;DHT22;20553;47.544;7.586;2022-09-01T12:55:15;37.10;36.90
34291;DHT22;20553;47.544;7.586;2022-09-01T13:00:56;37.50;37.10
34291;DHT22;20553;47.544;7.586;2022-09-01T13:06:03;38.20;35.80
34291;DHT22;20553;47.544;7.586;2022-09-01T13:11:17;38.30;36.10
34291;DHT22;20553;47.544;7.586;2022-09-01T13:16:25;39.40;35.20
34291;DHT22;20553;47.544;7.586;2022-09-01T13:21:29;38.40;35.50
34291;DHT22;20553;47.544;7.586;2022-09-01T13:26:39;36.30;37.80
34291;DHT22;20553;47.544;7.586;2022-09-01T13:32:09;39.10;35.80
34291;DHT22;20553;47.544;7.586;2022-09-01T13:37:23;39.40;35.10
34291;DHT22;20553;47.544;7.586;2022-09-01T13:42:27;37.60;36.30
34291;DHT22;20553;47.544;7.586;2022-09-01T13:47:33;37.90;36.20
34291;DHT22;20553;47.544;7.586;2022-09-01T13:52:58;39.20;35.20
34291;DHT22;20553;47.544;7.586;2022-09-01T13:58:03;39.10;34.80
34291;DHT22;20553;47.544;7.586;2022-09-01T14:03:11;40.00;34.80
34291;DHT22;20553;47.544;7.586;2022-09-01T14:08:20;41.10;34.00
34291;DHT22;20553;47.544;7.586;2022-09-01T14:13:27;40.70;33.80
34291;DHT22;20553;47.544;7.586;2022-09-01T14:18:34;41.00;33.50
34291;DHT22;20553;47.544;7.586;2022-09-01T14:23:39;42.00;32.40
34291;DHT22;20553;47.544;7.586;2022-09-01T14:28:45;40.80;33.30
34291;DHT22;20553;47.544;7.586;2022-09-01T14:33:51;39.80;33.80
34291;DHT22;20553;47.544;7.586;2022-09-01T14:38:56;36.60;36.30
34291;DHT22;20553;47.544;7.586;2022-09-01T14:44:01;37.20;36.00
34291;DHT22;20553;47.544;7.586;2022-09-01T14:49:07;38.30;35.50
34291;DHT22;20553;47.544;7.586;2022-09-01T14:54:14;37.70;35.80
34291;DHT22;20553;47.544;7.586;2022-09-01T14:59:19;38.10;35.70
34291;DHT22;20553;47.544;7.586;2022-09-01T15:04:25;39.60;34.40
34291;DHT22;20553;47.544;7.586;2022-09-01T15:09:30;38.80;35.10
34291;DHT22;20553;47.544;7.586;2022-09-01T15:14:34;36.30;37.00
34291;DHT22;20553;47.544;7.586;2022-09-01T15:50:04;36.40;36.10
34291;DHT22;20553;47.544;7.586;2022-09-01T15:55:45;36.20;37.00
34291;DHT22;20553;47.544;7.586;2022-09-01T16:01:43;35.00;37.70
34291;DHT22;20553;47.544;7.586;2022-09-01T16:14:06;36.20;37.20
34291;DHT22;20553;47.544;7.586;2022-09-01T16:19:51;35.40;37.60
34291;DHT22;20553;47.544;7.586;2022-09-01T16:25:16;34.90;38.20
34291;DHT22;20553;47.544;7.586;2022-09-01T16:30:29;33.30;40.10
34291;DHT22;20553;47.544;7.586;2022-09-01T16:35:39;32.90;39.90
34291;DHT22;20553;47.544;7.586;2022-09-01T16:41:04;31.30;41.80
34291;DHT22;20553;47.544;7.586;2022-09-01T16:46:19;30.00;43.50
34291;DHT22;20553;47.544;7.586;2022-09-01T16:51:37;27.90;47.10
34291;DHT22;20553;47.544;7.586;2022-09-01T16:56:59;26.40;49.70
34291;DHT22;20553;47.544;7.586;2022-09-01T17:02:19;25.60;51.10
34291;DHT22;20553;47.544;7.586;2022-09-01T17:07:44;25.00;51.60
34291;DHT22;20553;47.544;7.586;2022-09-01T17:12:56;24.70;52.70
34291;DHT22;20553;47.544;7.586;2022-09-01T17:18:10;24.30;53.80
34291;DHT22;20553;47.544;7.586;2022-09-01T17:23:27;24.00;55.00
34291;DHT22;20553;47.544;7.586;2022-09-01T17:28:44;23.50;56.20
34291;DHT22;20553;47.544;7.586;2022-09-01T17:33:58;23.30;57.20
34291;DHT22;20553;47.544;7.586;2022-09-01T17:39:19;23.10;57.90
34291;DHT22;20553;47.544;7.586;2022-09-01T17:44:45;22.90;58.40
34291;DHT22;20553;47.544;7.586;2022-09-01T17:50:04;22.70;58.80
34291;DHT22;20553;47.544;7.586;2022-09-01T17:55:26;22.50;59.60
34291;DHT22;20553;47.544;7.586;2022-09-01T18:00:49;22.40;60.30
34291;DHT22;20553;47.544;7.586;2022-09-01T18:06:07;22.10;61.00
34291;DHT22;20553;47.544;7.586;2022-09-01T18:11:22;21.90;61.60
34291;DHT22;20553;47.544;7.586;2022-09-01T18:16:38;21.70;62.20
34291;DHT22;20553;47.544;7.586;2022-09-01T18:21:55;21.50;63.20
34291;DHT22;20553;47.544;7.586;2022-09-01T18:27:03;21.30;64.20
34291;DHT22;20553;47.544;7.586;2022-09-01T18:32:25;21.20;65.00
34291;DHT22;20553;47.544;7.586;2022-09-01T18:37:49;21.00;65.80
34291;DHT22;20553;47.544;7.586;2022-09-01T18:43:07;20.80;67.00
34291;DHT22;20553;47.544;7.586;2022-09-01T18:48:28;20.60;68.10
34291;DHT22;20553;47.544;7.586;2022-09-01T18:53:47;20.40;69.40
34291;DHT22;20553;47.544;7.586;2022-09-01T18:59:23;20.20;70.20
34291;DHT22;20553;47.544;7.586;2022-09-01T19:04:41;20.00;71.30
34291;DHT22;20553;47.544;7.586;2022-09-01T19:09:53;19.90;71.90
34291;DHT22;20553;47.544;7.586;2022-09-01T19:15:07;19.80;72.80
34291;DHT22;20553;47.544;7.586;2022-09-01T19:20:22;19.60;73.90
34291;DHT22;20553;47.544;7.586;2022-09-01T19:25:33;19.60;74.60
34291;DHT22;20553;47.544;7.586;2022-09-01T19:30:45;19.50;75.10
34291;DHT22;20553;47.544;7.586;2022-09-01T19:35:59;19.50;75.70
34291;DHT22;20553;47.544;7.586;2022-09-01T19:41:12;19.40;76.30
34291;DHT22;20553;47.544;7.586;2022-09-01T19:46:28;19.30;76.70
34291;DHT22;20553;47.544;7.586;2022-09-01T19:51:42;19.20;77.50
34291;DHT22;20553;47.544;7.586;2022-09-01T19:56:57;19.10;77.90
34291;DHT22;20553;47.544;7.586;2022-09-01T20:02:09;19.00;78.80
34291;DHT22;20553;47.544;7.586;2022-09-01T20:07:27;18.90;79.40
34291;DHT22;20553;47.544;7.586;2022-09-01T20:12:41;18.80;80.20
34291;DHT22;20553;47.544;7.586;2022-09-01T20:17:59;18.70;81.00
34291;DHT22;20553;47.544;7.586;2022-09-01T20:23:20;18.60;82.20
34291;DHT22;20553;47.544;7.586;2022-09-01T20:28:42;18.60;82.50
34291;DHT22;20553;47.544;7.586;2022-09-01T20:33:56;18.40;83.70
34291;DHT22;20553;47.544;7.586;2022-09-01T20:39:13;18.30;84.50
34291;DHT22;20553;47.544;7.586;2022-09-01T20:44:46;18.30;84.90
34291;DHT22;20553;47.544;7.586;2022-09-01T20:49:59;18.10;86.00
34291;DHT22;20553;47.544;7.586;2022-09-01T20:55:10;18.10;86.70
34291;DHT22;20553;47.544;7.586;2022-09-01T21:00:21;17.80;88.80
34291;DHT22;20553;47.544;7.586;2022-09-01T21:05:35;17.70;89.90
34291;DHT22;20553;47.544;7.586;2022-09-01T21:10:55;17.70;90.50
34291;DHT22;20553;47.544;7.586;2022-09-01T21:16:08;17.50;91.80
34291;DHT22;20553;47.544;7.586;2022-09-01T21:21:27;17.40;92.90
34291;DHT22;20553;47.544;7.586;2022-09-01T21:26:39;17.20;94.30
34291;DHT22;20553;47.544;7.586;2022-09-01T21:31:44;17.10;95.40
34291;DHT22;20553;47.544;7.586;2022-09-01T21:36:50;17.10;96.60
34291;DHT22;20553;47.544;7.586;2022-09-01T21:41:58;17.00;98.00
34291;DHT22;20553;47.544;7.586;2022-09-01T21:47:04;17.00;98.70
34291;DHT22;20553;47.544;7.586;2022-09-01T21:52:09;17.10;98.60
34291;DHT22;20553;47.544;7.586;2022-09-01T21:57:15;17.10;99.40
34291;DHT22;20553;47.544;7.586;2022-09-01T22:02:19;17.10;99.80
34291;DHT22;20553;47.544;7.586;2022-09-01T22:07:30;17.10;99.90
34291;DHT22;20553;47.544;7.586;2022-09-01T22:12:38;17.00;99.90
34291;DHT22;20553;47.544;7.586;2022-09-01T22:17:44;16.90;99.90
34291;DHT22;20553;47.544;7.586;2022-09-01T22:22:49;16.90;99.90
34291;DHT22;20553;47.544;7.586;2022-09-01T22:27:58;16.90;99.90
34291;DHT22;20553;47.544;7.586;2022-09-01T22:33:04;16.80;99.90
34291;DHT22;20553;47.544;7.586;2022-09-01T22:38:09;16.80;99.90
34291;DHT22;20553;47.544;7.586;2022-09-01T22:43:16;16.80;99.90
34291;DHT22;20553;47.544;7.586;2022-09-01T22:48:23;16.70;99.90
34291;DHT22;20553;47.544;7.586;2022-09-01T22:53:29;16.60;99.90
34291;DHT22;20553;47.544;7.586;2022-09-01T22:58:35;16.50;99.90
34291;DHT22;20553;47.544;7.586;2022-09-01T23:03:40;16.50;99.90
34291;DHT22;20553;47.544;7.586;2022-09-01T23:08:45;16.40;99.90
34291;DHT22;20553;47.544;7.586;2022-09-01T23:13:52;16.30;99.90
34291;DHT22;20553;47.544;7.586;2022-09-01T23:18:58;16.10;99.90
34291;DHT22;20553;47.544;7.586;2022-09-01T23:24:04;15.90;99.90
34291;DHT22;20553;47.544;7.586;2022-09-01T23:29:11;16.00;99.90
34291;DHT22;20553;47.544;7.586;2022-09-01T23:34:15;15.90;99.90
34291;DHT22;20553;47.544;7.586;2022-09-01T23:39:21;15.80;99.90
34291;DHT22;20553;47.544;7.586;2022-09-01T23:44:26;15.70;99.90
34291;DHT22;20553;47.544;7.586;2022-09-01T23:49:31;15.70;99.90
34291;DHT22;20553;47.544;7.586;2022-09-01T23:54:37;15.60;99.90
34291;DHT22;20553;47.544;7.586;2022-09-01T23:59:42;15.60;99.90
